createdAt,value
2019-02-17T00:00:31.945Z,100723.33
2019-02-17T00:03:03.173Z,100721.48
2019-02-17T00:05:34.341Z,100722.41
2019-02-17T00:08:06.292Z,100721.80
2019-02-17T00:10:37.086Z,100730.29
2019-02-17T00:13:08.134Z,100723.97
2019-02-17T00:15:39.159Z,100732.59
2019-02-17T00:18:09.969Z,100728.80
2019-02-17T00:20:40.804Z,100716.97
2019-02-17T00:23:11.908Z,100727.14
2019-02-17T00:25:43.166Z,100729.52
2019-02-17T00:28:14.047Z,100721.84
2019-02-17T00:30:44.940Z,100720.31
2019-02-17T00:33:16.317Z,100718.52
2019-02-17T00:35:47.357Z,100719.25
2019-02-17T00:38:18.811Z,100714.38
2019-02-17T00:40:49.610Z,100717.05
2019-02-17T00:43:20.861Z,100719.70
2019-02-17T00:45:51.668Z,100721.87
2019-02-17T00:48:22.784Z,100720.67
2019-02-17T00:50:53.960Z,100719.08
2019-02-17T00:53:25.027Z,100725.50
2019-02-17T00:55:55.823Z,100723.38
2019-02-17T00:58:26.841Z,100711.50
2019-02-17T01:00:57.642Z,100720.59
2019-02-17T01:03:28.676Z,100727.95
2019-02-17T01:05:59.599Z,100713.61
2019-02-17T01:08:30.689Z,100710.25
2019-02-17T01:11:01.473Z,100701.95
2019-02-17T01:13:32.511Z,100704.74
2019-02-17T01:16:03.297Z,100702.89
2019-02-17T01:18:34.333Z,100704.02
2019-02-17T01:21:05.193Z,100702.39
2019-02-17T01:23:36.000Z,100708.03
2019-02-17T01:26:06.785Z,100707.64
2019-02-17T01:28:37.727Z,100715.16
2019-02-17T01:31:09.380Z,100715.87
2019-02-17T01:33:40.202Z,100713.33
2019-02-17T01:36:11.072Z,100713.36
2019-02-17T01:38:41.896Z,100718.23
2019-02-17T01:41:13.014Z,100713.56
2019-02-17T01:43:43.835Z,100716.52
2019-02-17T01:46:14.642Z,100713.32
2019-02-17T01:48:45.758Z,100710.56
2019-02-17T01:51:16.907Z,100708.31
2019-02-17T01:53:48.056Z,100701.92
2019-02-17T01:56:19.084Z,100696.09
2019-02-17T01:58:50.124Z,100691.05
2019-02-17T02:01:21.231Z,100683.58
2019-02-17T02:03:52.134Z,100685.77
2019-02-17T02:06:23.304Z,100685.01
2019-02-17T02:08:54.690Z,100681.40
2019-02-17T02:11:26.898Z,100676.41
2019-02-17T02:13:59.184Z,100678.33
2019-02-17T02:16:30.058Z,100670.59
2019-02-17T02:19:01.357Z,100670.50
2019-02-17T02:21:32.378Z,100659.77
2019-02-17T02:24:03.758Z,100658.39
2019-02-17T02:26:34.778Z,100667.50
2019-02-17T02:29:05.945Z,100670.58
2019-02-17T02:31:37.275Z,100679.38
2019-02-17T02:34:08.880Z,100687.64
2019-02-17T02:36:39.682Z,100684.92
2019-02-17T02:39:11.036Z,100678.72
2019-02-17T02:41:41.832Z,100690.65
2019-02-17T02:44:12.744Z,100687.86
2019-02-17T02:46:44.711Z,100692.23
2019-02-17T02:49:15.830Z,100680.29
2019-02-17T02:51:46.866Z,100679.53
2019-02-17T02:54:18.963Z,100675.95
2019-02-17T02:56:50.082Z,100675.98
2019-02-17T02:59:21.148Z,100673.97
2019-02-17T03:01:52.562Z,100674.20
2019-02-17T03:04:23.392Z,100679.59
2019-02-17T03:06:56.841Z,100678.63
2019-02-17T03:09:28.097Z,100680.73
2019-02-17T03:11:58.919Z,100682.22
2019-02-17T03:14:29.825Z,100678.89
2019-02-17T03:17:01.198Z,100683.06
2019-02-17T03:19:32.686Z,100686.83
2019-02-17T03:22:03.524Z,100683.21
2019-02-17T03:24:35.373Z,100690.64
2019-02-17T03:27:06.731Z,100686.97
2019-02-17T03:29:38.027Z,100683.18
2019-02-17T03:32:12.001Z,100687.87
2019-02-17T03:34:43.556Z,100682.25
2019-02-17T03:37:14.611Z,100686.42
2019-02-17T03:39:45.818Z,100685.21
2019-02-17T03:42:17.086Z,100684.61
2019-02-17T03:44:48.217Z,100689.93
2019-02-17T03:47:20.055Z,100689.66
2019-02-17T03:49:51.453Z,100688.45
2019-02-17T03:52:23.880Z,100688.21
2019-02-17T03:54:55.109Z,100692.69
2019-02-17T03:57:26.245Z,100690.09
2019-02-17T03:59:57.065Z,100694.92
2019-02-17T04:02:27.941Z,100700.30
2019-02-17T04:04:58.999Z,100695.25
2019-02-17T04:07:29.813Z,100692.52
2019-02-17T04:10:00.657Z,100692.09
2019-02-17T04:12:31.561Z,100692.67
2019-02-17T04:15:02.698Z,100693.10
2019-02-17T04:17:34.194Z,100695.41
2019-02-17T04:20:05.262Z,100696.95
2019-02-17T04:22:36.522Z,100691.82
2019-02-17T04:25:07.410Z,100688.52
2019-02-17T04:27:38.231Z,100691.73
2019-02-17T04:30:09.219Z,100692.33
2019-02-17T04:32:40.289Z,100693.30
2019-02-17T04:35:11.535Z,100696.76
2019-02-17T04:37:42.649Z,100696.52
2019-02-17T04:40:13.898Z,100696.16
2019-02-17T04:42:44.704Z,100696.24
2019-02-17T04:45:15.671Z,100694.55
2019-02-17T04:47:46.486Z,100693.69
2019-02-17T04:50:17.409Z,100684.23
2019-02-17T04:52:48.523Z,100683.84
2019-02-17T04:55:19.823Z,100678.80
2019-02-17T04:57:50.711Z,100679.34
2019-02-17T05:00:21.708Z,100677.59
2019-02-17T05:02:52.743Z,100681.03
2019-02-17T05:05:23.697Z,100670.30
2019-02-17T05:07:54.626Z,100665.24
2019-02-17T05:10:26.260Z,100661.38
2019-02-17T05:12:57.990Z,100663.81
2019-02-17T05:15:29.058Z,100666.22
2019-02-17T05:18:00.169Z,100663.35
2019-02-17T05:20:30.985Z,100664.94
2019-02-17T05:23:01.862Z,100665.41
2019-02-17T05:25:32.917Z,100661.86
2019-02-17T05:28:04.195Z,100658.07
2019-02-17T05:30:35.447Z,100655.34
2019-02-17T05:33:06.249Z,100648.36
2019-02-17T05:35:37.622Z,100653.64
2019-02-17T05:38:09.333Z,100651.83
2019-02-17T05:40:40.807Z,100648.77
2019-02-17T05:43:11.753Z,100649.95
2019-02-17T05:45:42.656Z,100651.17
2019-02-17T05:48:13.466Z,100656.28
2019-02-17T05:50:44.609Z,100651.43
2019-02-17T05:53:16.158Z,100654.23
2019-02-17T05:55:47.420Z,100655.88
2019-02-17T05:58:18.265Z,100654.32
2019-02-17T06:00:49.571Z,100662.77
2019-02-17T06:03:20.458Z,100663.12
2019-02-17T06:05:51.595Z,100665.52
2019-02-17T06:08:22.804Z,100666.10
2019-02-17T06:10:53.871Z,100660.45
2019-02-17T06:13:24.946Z,100666.39
2019-02-17T06:15:55.835Z,100665.76
2019-02-17T06:18:26.711Z,100670.03
2019-02-17T06:20:58.146Z,100673.28
2019-02-17T06:23:30.180Z,100672.72
2019-02-17T06:26:02.276Z,100674.55
2019-02-17T06:28:33.111Z,100665.95
2019-02-17T06:31:13.662Z,100679.20
2019-02-17T06:33:37.138Z,100680.73
2019-02-17T06:36:07.969Z,100688.75
2019-02-17T06:38:38.934Z,100691.23
2019-02-17T06:41:10.469Z,100697.05
2019-02-17T06:43:41.840Z,100699.80
2019-02-17T06:46:16.470Z,100704.55
2019-02-17T06:48:47.432Z,100696.70
2019-02-17T06:51:18.260Z,100697.22
2019-02-17T06:53:49.141Z,100702.27
2019-02-17T06:56:39.274Z,100700.14
2019-02-17T06:59:10.302Z,100695.50
2019-02-17T07:01:41.202Z,100700.81
2019-02-17T07:04:12.275Z,100701.73
2019-02-17T07:06:50.504Z,100704.13
2019-02-17T07:09:21.610Z,100699.98
2019-02-17T07:11:52.804Z,100696.91
2019-02-17T07:14:23.856Z,100695.72
2019-02-17T07:16:54.824Z,100691.46
2019-02-17T07:19:25.688Z,100687.34
2019-02-17T07:21:56.690Z,100689.22
2019-02-17T07:24:27.733Z,100691.00
2019-02-17T07:26:58.821Z,100691.48
2019-02-17T07:29:29.627Z,100689.16
2019-02-17T07:32:00.701Z,100692.59
2019-02-17T07:34:31.746Z,100689.91
2019-02-17T07:37:02.931Z,100681.84
2019-02-17T07:39:33.747Z,100680.09
2019-02-17T07:42:04.657Z,100676.65
2019-02-17T07:44:35.555Z,100682.63
2019-02-17T07:47:06.450Z,100684.83
2019-02-17T07:49:38.518Z,100684.87
2019-02-17T07:52:09.765Z,100684.43
2019-02-17T07:54:40.883Z,100680.06
2019-02-17T07:57:12.026Z,100694.61
2019-02-17T07:59:42.830Z,100704.11
2019-02-17T08:02:13.888Z,100711.08
2019-02-17T08:04:44.762Z,100713.41
2019-02-17T08:07:15.935Z,100717.20
2019-02-17T08:09:46.980Z,100700.19
2019-02-17T08:12:18.138Z,100701.03
2019-02-17T08:14:49.036Z,100703.11
2019-02-17T08:17:20.106Z,100694.91
2019-02-17T08:19:51.292Z,100692.02
2019-02-17T08:22:22.076Z,100687.39
2019-02-17T08:24:53.082Z,100689.60
2019-02-17T08:27:24.037Z,100687.80
2019-02-17T08:29:55.208Z,100685.25
2019-02-17T08:32:26.155Z,100683.70
2019-02-17T08:34:57.006Z,100681.68
2019-02-17T08:37:28.651Z,100677.92
2019-02-17T08:39:59.454Z,100676.09
2019-02-17T08:42:30.330Z,100674.57
2019-02-17T08:45:01.377Z,100675.58
2019-02-17T08:47:32.501Z,100670.40
2019-02-17T08:50:03.625Z,100669.92
2019-02-17T08:52:34.523Z,100667.47
2019-02-17T08:55:05.802Z,100673.59
2019-02-17T08:57:38.077Z,100669.02
2019-02-17T09:00:10.766Z,100667.34
2019-02-17T09:02:41.695Z,100658.23
2019-02-17T09:05:13.299Z,100664.42
2019-02-17T09:07:44.262Z,100662.11
2019-02-17T09:10:15.378Z,100664.03
2019-02-17T09:12:46.270Z,100665.05
2019-02-17T09:15:17.571Z,100672.88
2019-02-17T09:17:48.753Z,100674.61
2019-02-17T09:20:19.554Z,100681.82
2019-02-17T09:22:50.403Z,100680.51
2019-02-17T09:25:21.594Z,100680.08
2019-02-17T09:27:52.628Z,100680.36
2019-02-17T09:30:23.430Z,100669.47
2019-02-17T09:32:54.487Z,100668.03
2019-02-17T09:35:26.554Z,100664.30
2019-02-17T09:37:57.675Z,100672.23
2019-02-17T09:40:28.972Z,100672.03
2019-02-17T09:43:00.409Z,100668.20
2019-02-17T09:45:31.362Z,100671.19
2019-02-17T09:48:02.657Z,100669.61
2019-02-17T09:50:33.769Z,100674.09
2019-02-17T09:53:05.209Z,100669.69
2019-02-17T09:55:36.344Z,100663.31
2019-02-17T09:58:07.236Z,100662.02
2019-02-17T10:00:38.517Z,100662.77
2019-02-17T10:03:09.657Z,100662.62
2019-02-17T10:05:40.730Z,100658.39
2019-02-17T10:08:11.647Z,100657.34
2019-02-17T10:10:42.779Z,100655.50
2019-02-17T10:13:14.210Z,100659.97
2019-02-17T10:15:45.104Z,100665.77
2019-02-17T10:18:16.234Z,100662.62
2019-02-17T10:20:47.594Z,100661.25
2019-02-17T10:23:19.139Z,100655.09
2019-02-17T10:25:50.193Z,100658.50
2019-02-17T10:28:21.320Z,100659.38
2019-02-17T10:30:52.469Z,100654.95
2019-02-17T10:33:23.361Z,100653.44
2019-02-17T10:35:54.246Z,100655.34
2019-02-17T10:38:25.077Z,100649.20
2019-02-17T10:40:56.151Z,100656.78
2019-02-17T10:43:27.301Z,100641.44
2019-02-17T10:45:58.651Z,100645.92
2019-02-17T10:48:29.675Z,100642.86
2019-02-17T10:51:00.793Z,100641.21
2019-02-17T10:53:31.888Z,100646.13
2019-02-17T10:56:03.160Z,100631.20
2019-02-17T10:58:34.229Z,100637.07
2019-02-17T11:01:05.157Z,100622.34
2019-02-17T11:03:36.300Z,100630.19
2019-02-17T11:06:07.181Z,100631.97
2019-02-17T11:08:38.242Z,100623.36
2019-02-17T11:11:09.550Z,100612.94
2019-02-17T11:13:41.367Z,100613.02
2019-02-17T11:16:12.695Z,100607.48
2019-02-17T11:18:43.724Z,100596.33
2019-02-17T11:21:14.843Z,100593.26
2019-02-17T11:23:45.860Z,100586.27
2019-02-17T11:26:16.980Z,100582.48
2019-02-17T11:28:47.997Z,100573.48
2019-02-17T11:31:19.118Z,100576.24
2019-02-17T11:33:50.256Z,100576.03
2019-02-17T11:36:21.425Z,100571.82
2019-02-17T11:38:52.571Z,100574.06
2019-02-17T11:41:23.697Z,100569.70
2019-02-17T11:43:54.615Z,100569.52
2019-02-17T11:46:25.609Z,100562.09
2019-02-17T11:48:57.423Z,100560.55
2019-02-17T11:51:28.477Z,100562.47
2019-02-17T11:53:59.584Z,100558.95
2019-02-17T11:56:30.583Z,100558.53
2019-02-17T11:59:01.415Z,100556.52
2019-02-17T12:01:32.437Z,100547.14
2019-02-17T12:04:03.450Z,100534.92
2019-02-17T12:06:34.294Z,100534.92
2019-02-17T12:09:06.192Z,100535.75
2019-02-17T12:11:38.652Z,100534.17
2019-02-17T12:14:09.794Z,100524.05
2019-02-17T12:16:40.548Z,100524.05
2019-02-17T12:19:11.601Z,100510.99
2019-02-17T12:21:59.488Z,100510.99
2019-02-17T12:24:35.467Z,100500.78
2019-02-17T12:27:17.877Z,100510.63
2019-02-17T12:29:52.602Z,100499.92
2019-02-17T12:32:28.563Z,100507.54
2019-02-17T12:34:59.387Z,100504.68
2019-02-17T12:37:30.428Z,100503.72
2019-02-17T12:40:01.498Z,100503.12
2019-02-17T12:42:33.410Z,100494.07
2019-02-17T12:45:04.553Z,100486.11
2019-02-17T12:47:35.846Z,100483.34
2019-02-17T12:50:08.274Z,100477.58
2019-02-17T12:52:46.776Z,100475.30
2019-02-17T12:55:12.344Z,100473.48
2019-02-17T12:57:43.229Z,100472.47
2019-02-17T13:00:16.390Z,100481.63
2019-02-17T13:02:47.279Z,100478.45
2019-02-17T13:05:18.336Z,100474.47
2019-02-17T13:07:49.149Z,100465.67
2019-02-17T13:10:19.972Z,100462.89
2019-02-17T13:12:50.860Z,100464.36
2019-02-17T13:15:21.747Z,100457.70
2019-02-17T13:17:53.078Z,100461.84
2019-02-17T13:20:23.928Z,100452.92
2019-02-17T13:22:54.999Z,100453.92
2019-02-17T13:25:26.065Z,100446.02
2019-02-17T13:27:57.734Z,100451.38
2019-02-17T13:30:28.877Z,100449.14
2019-02-17T13:33:00.972Z,100436.08
2019-02-17T13:35:31.870Z,100435.58
2019-02-17T13:38:02.888Z,100430.05
2019-02-17T13:40:33.739Z,100432.80
2019-02-17T13:43:04.863Z,100425.77
2019-02-17T13:45:36.076Z,100427.83
2019-02-17T13:48:07.045Z,100424.61
2019-02-17T13:50:38.203Z,100426.52
2019-02-17T13:53:12.067Z,100417.75
2019-02-17T13:55:43.094Z,100421.61
2019-02-17T13:58:14.148Z,100409.19
2019-02-17T14:00:44.968Z,100413.31
2019-02-17T14:03:15.859Z,100412.55
2019-02-17T14:05:46.920Z,100406.80
2019-02-17T14:08:18.284Z,100405.55
2019-02-17T14:10:49.598Z,100399.30
2019-02-17T14:13:21.694Z,100397.53
2019-02-17T14:15:52.848Z,100395.31
2019-02-17T14:18:23.777Z,100393.25
2019-02-17T14:20:54.670Z,100394.47
2019-02-17T14:23:26.203Z,100385.84
2019-02-17T14:25:57.017Z,100386.88
2019-02-17T14:28:28.200Z,100384.17
2019-02-17T14:30:59.274Z,100385.30
2019-02-17T14:33:30.428Z,100380.91
2019-02-17T14:36:01.480Z,100374.02
2019-02-17T14:38:32.532Z,100368.86
2019-02-17T14:41:03.515Z,100368.41
2019-02-17T14:43:34.627Z,100371.77
2019-02-17T14:46:05.763Z,100372.60
2019-02-17T14:48:36.571Z,100371.64
2019-02-17T14:51:07.696Z,100374.90
2019-02-17T14:53:38.825Z,100371.66
2019-02-17T14:56:10.105Z,100370.34
2019-02-17T14:58:41.985Z,100372.09
2019-02-17T15:01:12.918Z,100366.45
2019-02-17T15:03:43.944Z,100368.59
2019-02-17T15:06:14.770Z,100363.22
2019-02-17T15:08:46.731Z,100358.31
2019-02-17T15:11:18.189Z,100356.39
2019-02-17T15:13:49.856Z,100353.48
2019-02-17T15:16:21.363Z,100351.88
2019-02-17T15:18:52.548Z,100349.98
2019-02-17T15:21:23.490Z,100353.34
2019-02-17T15:23:54.625Z,100347.80
2019-02-17T15:26:25.449Z,100350.39
2019-02-17T15:28:56.251Z,100350.69
2019-02-17T15:31:27.080Z,100346.97
2019-02-17T15:33:58.109Z,100345.91
2019-02-17T15:36:29.246Z,100342.00
2019-02-17T15:39:00.362Z,100344.37
2019-02-17T15:41:32.795Z,100340.03
2019-02-17T15:44:03.854Z,100344.12
2019-02-17T15:46:34.799Z,100336.23
2019-02-17T15:49:05.847Z,100328.46
2019-02-17T15:51:37.368Z,100323.50
2019-02-17T15:54:08.621Z,100324.39
2019-02-17T15:56:39.868Z,100322.84
2019-02-17T15:59:11.002Z,100324.79
2019-02-17T16:01:42.191Z,100319.11
2019-02-17T16:04:13.305Z,100320.83
2019-02-17T16:06:44.127Z,100318.30
2019-02-17T16:09:15.905Z,100306.65
2019-02-17T16:11:46.975Z,100312.50
2019-02-17T16:14:18.256Z,100309.69
2019-02-17T16:16:49.743Z,100307.59
2019-02-17T16:19:20.635Z,100306.00
2019-02-17T16:21:51.919Z,100302.50
2019-02-17T16:24:22.795Z,100299.81
2019-02-17T16:26:53.766Z,100302.56
2019-02-17T16:29:24.571Z,100304.72
2019-02-17T16:31:55.463Z,100307.69
2019-02-17T16:34:26.330Z,100305.30
2019-02-17T16:36:57.709Z,100304.68
2019-02-17T16:39:29.079Z,100295.38
2019-02-17T16:42:01.018Z,100283.87
2019-02-17T16:44:31.976Z,100295.91
2019-02-17T16:47:03.077Z,100302.02
2019-02-17T16:49:34.004Z,100301.69
2019-02-17T16:52:04.882Z,100297.30
2019-02-17T16:54:36.025Z,100293.37
2019-02-17T16:57:07.374Z,100293.41
2019-02-17T16:59:38.269Z,100289.36
2019-02-17T17:02:09.278Z,100293.42
2019-02-17T17:04:48.040Z,100297.77
2019-02-17T17:07:12.978Z,100296.08
2019-02-17T17:09:43.854Z,100296.00
2019-02-17T17:12:15.041Z,100299.04
2019-02-17T17:14:45.906Z,100292.44
2019-02-17T17:17:16.964Z,100305.16
2019-02-17T17:19:47.852Z,100300.64
2019-02-17T17:22:18.669Z,100306.09
2019-02-17T17:24:49.705Z,100311.98
2019-02-17T17:27:21.247Z,100311.41
2019-02-17T17:29:52.356Z,100309.95
2019-02-17T17:32:23.341Z,100310.87
2019-02-17T17:34:58.865Z,100314.75
2019-02-17T17:37:26.968Z,100313.59
2019-02-17T17:39:58.073Z,100315.44
2019-02-17T17:42:29.211Z,100314.16
2019-02-17T17:45:01.105Z,100319.89
2019-02-17T17:47:33.792Z,100324.13
2019-02-17T17:50:05.037Z,100321.34
2019-02-17T17:52:35.858Z,100323.72
2019-02-17T17:55:07.073Z,100319.29
2019-02-17T17:57:38.278Z,100324.92
2019-02-17T18:00:10.771Z,100317.61
2019-02-17T18:02:45.442Z,100320.77
2019-02-17T18:05:14.847Z,100322.03
2019-02-17T18:07:45.868Z,100320.16
2019-02-17T18:10:16.775Z,100317.18
2019-02-17T18:12:47.620Z,100322.81
2019-02-17T18:15:18.650Z,100322.89
2019-02-17T18:17:54.324Z,100322.16
2019-02-17T18:20:22.580Z,100323.00
2019-02-17T18:22:53.562Z,100332.90
2019-02-17T18:25:24.602Z,100337.06
2019-02-17T18:27:56.109Z,100330.41
2019-02-17T18:30:26.927Z,100331.19
2019-02-17T18:32:58.139Z,100330.86
2019-02-17T18:35:29.071Z,100333.84
2019-02-17T18:38:00.599Z,100332.55
2019-02-17T18:40:31.657Z,100335.62
2019-02-17T18:43:02.992Z,100334.70
2019-02-17T18:45:34.132Z,100333.77
2019-02-17T18:48:05.091Z,100332.92
2019-02-17T18:50:36.214Z,100337.83
2019-02-17T18:53:07.172Z,100331.16
2019-02-17T18:55:38.013Z,100336.78
2019-02-17T18:58:09.075Z,100335.52
2019-02-17T19:00:40.354Z,100333.61
2019-02-17T19:03:11.237Z,100332.66
2019-02-17T19:05:42.370Z,100336.88
2019-02-17T19:08:13.240Z,100341.22
2019-02-17T19:10:44.350Z,100337.62
2019-02-17T19:13:15.927Z,100342.28
2019-02-17T19:15:46.998Z,100344.53
2019-02-17T19:18:18.663Z,100341.76
2019-02-17T19:20:49.731Z,100342.23
2019-02-17T19:23:20.645Z,100339.77
2019-02-17T19:25:51.622Z,100338.57
2019-02-17T19:28:22.709Z,100346.84
2019-02-17T19:30:53.843Z,100342.56
2019-02-17T19:33:24.635Z,100346.05
2019-02-17T19:35:55.788Z,100350.94
2019-02-17T19:38:27.196Z,100354.36
2019-02-17T19:40:59.259Z,100350.42
2019-02-17T19:43:31.474Z,100347.90
2019-02-17T19:46:02.535Z,100348.26
2019-02-17T19:48:33.652Z,100349.64
2019-02-17T19:51:04.638Z,100348.42
2019-02-17T19:53:35.737Z,100347.28
2019-02-17T19:56:07.524Z,100354.28
2019-02-17T19:58:38.701Z,100349.66
2019-02-17T20:01:09.843Z,100350.79
2019-02-17T20:03:47.499Z,100352.31
2019-02-17T20:06:20.559Z,100349.42
2019-02-17T20:08:51.348Z,100353.14
2019-02-17T20:11:22.244Z,100346.41
2019-02-17T20:13:53.035Z,100352.26
2019-02-17T20:16:24.403Z,100350.95
2019-02-17T20:18:55.479Z,100355.95
2019-02-17T20:21:27.395Z,100361.98
2019-02-17T20:23:58.422Z,100354.47
2019-02-17T20:26:29.728Z,100357.64
2019-02-17T20:29:01.614Z,100360.84
2019-02-17T20:31:32.461Z,100355.63
2019-02-17T20:34:03.402Z,100365.27
2019-02-17T20:36:34.288Z,100359.05
2019-02-17T20:39:06.455Z,100356.53
2019-02-17T20:41:38.023Z,100349.63
2019-02-17T20:44:09.207Z,100351.73
2019-02-17T20:46:40.728Z,100343.20
2019-02-17T20:49:11.580Z,100335.61
2019-02-17T20:51:42.747Z,100342.66
2019-02-17T20:54:13.770Z,100343.35
2019-02-17T20:56:44.919Z,100339.77
2019-02-17T20:59:15.793Z,100339.38
2019-02-17T21:01:46.596Z,100340.77
2019-02-17T21:04:17.458Z,100341.62
2019-02-17T21:06:48.488Z,100345.04
2019-02-17T21:09:19.898Z,100336.27
2019-02-17T21:11:50.957Z,100337.17
2019-02-17T21:14:21.820Z,100336.16
2019-02-17T21:16:52.637Z,100343.91
2019-02-17T21:19:24.693Z,100339.34
2019-02-17T21:21:56.001Z,100334.09
2019-02-17T21:24:27.028Z,100339.98
2019-02-17T21:26:58.173Z,100331.92
2019-02-17T21:29:29.449Z,100339.28
2019-02-17T21:32:00.348Z,100335.45
2019-02-17T21:34:31.552Z,100330.70
2019-02-17T21:37:02.690Z,100342.23
2019-02-17T21:39:33.561Z,100336.36
2019-02-17T21:42:05.207Z,100339.58
2019-02-17T21:44:36.330Z,100334.67
2019-02-17T21:47:07.499Z,100337.78
2019-02-17T21:49:38.868Z,100338.83
2019-02-17T21:52:09.680Z,100340.00
2019-02-17T21:54:40.479Z,100339.60
2019-02-17T21:57:11.368Z,100344.70
2019-02-17T21:59:42.233Z,100343.84
2019-02-17T22:02:13.408Z,100343.16
2019-02-17T22:04:44.442Z,100342.20
2019-02-17T22:07:15.749Z,100343.62
2019-02-17T22:09:46.980Z,100342.88
2019-02-17T22:12:18.954Z,100337.27
2019-02-17T22:14:49.744Z,100330.52
2019-02-17T22:17:21.134Z,100332.31
2019-02-17T22:19:52.236Z,100334.38
2019-02-17T22:22:23.188Z,100341.53
2019-02-17T22:24:54.343Z,100335.29
2019-02-17T22:27:25.157Z,100328.52
2019-02-17T22:29:56.630Z,100325.25
2019-02-17T22:32:27.797Z,100323.05
2019-02-17T22:34:58.664Z,100329.48
2019-02-17T22:37:29.553Z,100328.72
2019-02-17T22:40:00.492Z,100332.12
2019-02-17T22:42:31.447Z,100326.77
2019-02-17T22:45:02.577Z,100326.54
2019-02-17T22:47:33.669Z,100330.62
2019-02-17T22:50:04.684Z,100328.73
2019-02-17T22:52:35.485Z,100329.63
2019-02-17T22:55:07.421Z,100332.06
2019-02-17T22:57:38.307Z,100330.91
2019-02-17T23:00:19.560Z,100334.06
2019-02-17T23:02:52.196Z,100335.67
2019-02-17T23:05:23.228Z,100338.59
2019-02-17T23:07:54.102Z,100340.80
2019-02-17T23:10:25.117Z,100344.67
2019-02-17T23:12:56.284Z,100349.43
2019-02-17T23:15:27.388Z,100341.55
2019-02-17T23:17:58.470Z,100349.47
2019-02-17T23:20:29.495Z,100346.14
2019-02-17T23:23:00.590Z,100349.73
2019-02-17T23:25:31.375Z,100346.51
2019-02-17T23:28:02.211Z,100352.89
2019-02-17T23:30:33.321Z,100356.31
2019-02-17T23:33:04.274Z,100352.89
2019-02-17T23:35:35.291Z,100348.14
2019-02-17T23:38:06.433Z,100349.47
2019-02-17T23:40:37.319Z,100348.84
2019-02-17T23:43:08.437Z,100355.16
2019-02-17T23:45:39.859Z,100353.42
2019-02-17T23:48:10.893Z,100351.02
2019-02-17T23:50:41.939Z,100350.11
2019-02-17T23:53:12.747Z,100353.50
2019-02-17T23:55:43.953Z,100350.52
2019-02-17T23:58:15.077Z,100349.88
